sensor_id;sensor_type;location;lat;lon;timestamp;P1;durP1;ratioP1;P2;durP2;ratioP2
11203;SDS011;5659;49.408;11.116;2022-12-18T00:01:46;112.63;;;56.43;;
11203;SDS011;5659;49.408;11.116;2022-12-18T00:04:18;120.20;;;55.50;;
11203;SDS011;5659;49.408;11.116;2022-12-18T00:06:46;129.47;;;60.53;;
11203;SDS011;5659;49.408;11.116;2022-12-18T00:09:12;123.50;;;60.57;;
11203;SDS011;5659;49.408;11.116;2022-12-18T00:11:37;117.50;;;58.13;;
11203;SDS011;5659;49.408;11.116;2022-12-18T00:14:03;127.33;;;58.87;;
11203;SDS011;5659;49.408;11.116;2022-12-18T00:16:29;131.73;;;60.63;;
11203;SDS011;5659;49.408;11.116;2022-12-18T00:18:57;121.53;;;58.67;;
11203;SDS011;5659;49.408;11.116;2022-12-18T00:21:24;122.50;;;57.63;;
11203;SDS011;5659;49.408;11.116;2022-12-18T00:23:50;105.00;;;53.90;;
11203;SDS011;5659;49.408;11.116;2022-12-18T00:28:46;108.17;;;53.67;;
11203;SDS011;5659;49.408;11.116;2022-12-18T00:31:13;113.13;;;54.77;;
11203;SDS011;5659;49.408;11.116;2022-12-18T00:33:41;107.37;;;52.23;;
11203;SDS011;5659;49.408;11.116;2022-12-18T00:36:09;105.03;;;51.73;;
11203;SDS011;5659;49.408;11.116;2022-12-18T00:38:37;112.37;;;51.73;;
11203;SDS011;5659;49.408;11.116;2022-12-18T00:41:03;110.13;;;51.37;;
11203;SDS011;5659;49.408;11.116;2022-12-18T00:43:30;96.07;;;47.07;;
11203;SDS011;5659;49.408;11.116;2022-12-18T00:45:55;95.73;;;46.00;;
11203;SDS011;5659;49.408;11.116;2022-12-18T00:48:21;102.33;;;46.60;;
11203;SDS011;5659;49.408;11.116;2022-12-18T00:50:50;95.60;;;44.67;;
11203;SDS011;5659;49.408;11.116;2022-12-18T00:53:16;82.83;;;42.73;;
11203;SDS011;5659;49.408;11.116;2022-12-18T00:55:42;87.10;;;42.97;;
11203;SDS011;5659;49.408;11.116;2022-12-18T00:58:09;94.03;;;44.20;;
11203;SDS011;5659;49.408;11.116;2022-12-18T01:00:35;86.50;;;43.27;;
11203;SDS011;5659;49.408;11.116;2022-12-18T01:03:01;85.93;;;43.03;;
11203;SDS011;5659;49.408;11.116;2022-12-18T01:05:27;83.70;;;42.70;;
11203;SDS011;5659;49.408;11.116;2022-12-18T01:07:52;83.40;;;41.10;;
11203;SDS011;5659;49.408;11.116;2022-12-18T01:10:18;88.23;;;39.53;;
11203;SDS011;5659;49.408;11.116;2022-12-18T01:12:44;80.87;;;40.97;;
11203;SDS011;5659;49.408;11.116;2022-12-18T01:15:10;81.00;;;39.87;;
11203;SDS011;5659;49.408;11.116;2022-12-18T01:17:38;78.13;;;39.40;;
11203;SDS011;5659;49.408;11.116;2022-12-18T01:20:04;78.30;;;39.27;;
11203;SDS011;5659;49.408;11.116;2022-12-18T01:22:30;76.37;;;41.07;;
11203;SDS011;5659;49.408;11.116;2022-12-18T01:24:55;81.30;;;37.90;;
11203;SDS011;5659;49.408;11.116;2022-12-18T01:27:21;81.87;;;39.57;;
11203;SDS011;5659;49.408;11.116;2022-12-18T01:29:46;81.37;;;39.30;;
11203;SDS011;5659;49.408;11.116;2022-12-18T01:32:12;72.13;;;37.87;;
11203;SDS011;5659;49.408;11.116;2022-12-18T01:34:37;72.07;;;38.57;;
11203;SDS011;5659;49.408;11.116;2022-12-18T01:37:04;80.77;;;38.83;;
11203;SDS011;5659;49.408;11.116;2022-12-18T01:39:30;74.73;;;39.70;;
11203;SDS011;5659;49.408;11.116;2022-12-18T01:41:57;79.20;;;38.70;;
11203;SDS011;5659;49.408;11.116;2022-12-18T01:44:46;76.80;;;38.17;;
11203;SDS011;5659;49.408;11.116;2022-12-18T01:47:24;74.47;;;38.07;;
11203;SDS011;5659;49.408;11.116;2022-12-18T01:52:48;81.17;;;38.13;;
11203;SDS011;5659;49.408;11.116;2022-12-18T01:55:17;74.93;;;38.60;;
11203;SDS011;5659;49.408;11.116;2022-12-18T01:57:45;73.63;;;37.00;;
11203;SDS011;5659;49.408;11.116;2022-12-18T02:00:14;73.97;;;37.00;;
11203;SDS011;5659;49.408;11.116;2022-12-18T02:02:43;73.93;;;37.83;;
11203;SDS011;5659;49.408;11.116;2022-12-18T02:05:10;66.97;;;38.07;;
11203;SDS011;5659;49.408;11.116;2022-12-18T02:10:33;80.83;;;38.87;;
11203;SDS011;5659;49.408;11.116;2022-12-18T02:16:08;78.93;;;39.40;;
11203;SDS011;5659;49.408;11.116;2022-12-18T02:18:45;75.70;;;40.37;;
11203;SDS011;5659;49.408;11.116;2022-12-18T02:21:33;78.40;;;41.43;;
11203;SDS011;5659;49.408;11.116;2022-12-18T02:27:01;92.63;;;41.17;;
11203;SDS011;5659;49.408;11.116;2022-12-18T02:29:40;102.90;;;44.53;;
11203;SDS011;5659;49.408;11.116;2022-12-18T02:32:14;114.80;;;47.60;;
11203;SDS011;5659;49.408;11.116;2022-12-18T02:34:44;112.73;;;47.57;;
11203;SDS011;5659;49.408;11.116;2022-12-18T02:37:14;124.80;;;50.70;;
11203;SDS011;5659;49.408;11.116;2022-12-18T02:39:42;128.83;;;49.93;;
11203;SDS011;5659;49.408;11.116;2022-12-18T02:42:09;136.03;;;49.40;;
11203;SDS011;5659;49.408;11.116;2022-12-18T02:44:46;141.37;;;50.73;;
11203;SDS011;5659;49.408;11.116;2022-12-18T02:47:14;138.17;;;53.47;;
11203;SDS011;5659;49.408;11.116;2022-12-18T03:00:36;119.93;;;48.50;;
11203;SDS011;5659;49.408;11.116;2022-12-18T03:05:57;118.17;;;48.00;;
11203;SDS011;5659;49.408;11.116;2022-12-18T03:08:29;116.17;;;48.13;;
11203;SDS011;5659;49.408;11.116;2022-12-18T03:11:03;115.27;;;45.93;;
11203;SDS011;5659;49.408;11.116;2022-12-18T03:13:37;117.53;;;44.67;;
11203;SDS011;5659;49.408;11.116;2022-12-18T03:16:15;115.87;;;45.63;;
11203;SDS011;5659;49.408;11.116;2022-12-18T03:18:51;114.77;;;46.13;;
11203;SDS011;5659;49.408;11.116;2022-12-18T03:21:26;117.27;;;46.73;;
11203;SDS011;5659;49.408;11.116;2022-12-18T03:23:57;98.93;;;43.00;;
11203;SDS011;5659;49.408;11.116;2022-12-18T03:26:25;110.93;;;43.30;;
11203;SDS011;5659;49.408;11.116;2022-12-18T03:28:56;105.43;;;41.97;;
11203;SDS011;5659;49.408;11.116;2022-12-18T03:31:31;100.80;;;39.60;;
11203;SDS011;5659;49.408;11.116;2022-12-18T03:34:03;88.80;;;38.20;;
11203;SDS011;5659;49.408;11.116;2022-12-18T03:36:33;92.43;;;39.33;;
11203;SDS011;5659;49.408;11.116;2022-12-18T03:38:59;90.43;;;37.60;;
11203;SDS011;5659;49.408;11.116;2022-12-18T03:41:32;92.27;;;37.83;;
11203;SDS011;5659;49.408;11.116;2022-12-18T03:52:32;83.80;;;36.33;;
11203;SDS011;5659;49.408;11.116;2022-12-18T03:55:03;77.50;;;35.27;;
11203;SDS011;5659;49.408;11.116;2022-12-18T03:57:32;75.23;;;34.80;;
11203;SDS011;5659;49.408;11.116;2022-12-18T04:00:03;74.80;;;35.00;;
11203;SDS011;5659;49.408;11.116;2022-12-18T04:02:44;69.33;;;34.07;;
11203;SDS011;5659;49.408;11.116;2022-12-18T04:05:13;67.07;;;32.40;;
11203;SDS011;5659;49.408;11.116;2022-12-18T04:07:40;71.47;;;33.13;;
11203;SDS011;5659;49.408;11.116;2022-12-18T04:10:07;73.73;;;34.70;;
11203;SDS011;5659;49.408;11.116;2022-12-18T04:12:34;72.93;;;33.17;;
11203;SDS011;5659;49.408;11.116;2022-12-18T04:15:02;74.03;;;34.03;;
11203;SDS011;5659;49.408;11.116;2022-12-18T04:17:27;72.83;;;33.73;;
11203;SDS011;5659;49.408;11.116;2022-12-18T04:19:54;74.97;;;33.63;;
11203;SDS011;5659;49.408;11.116;2022-12-18T04:22:20;67.13;;;31.77;;
11203;SDS011;5659;49.408;11.116;2022-12-18T04:24:45;77.80;;;33.77;;
11203;SDS011;5659;49.408;11.116;2022-12-18T04:27:11;73.23;;;33.10;;
11203;SDS011;5659;49.408;11.116;2022-12-18T04:29:37;72.67;;;33.07;;
11203;SDS011;5659;49.408;11.116;2022-12-18T04:32:03;76.40;;;32.40;;
11203;SDS011;5659;49.408;11.116;2022-12-18T04:34:28;80.53;;;34.13;;
11203;SDS011;5659;49.408;11.116;2022-12-18T04:36:54;78.67;;;33.70;;
11203;SDS011;5659;49.408;11.116;2022-12-18T04:39:20;79.27;;;33.67;;
11203;SDS011;5659;49.408;11.116;2022-12-18T04:41:45;83.33;;;33.17;;
11203;SDS011;5659;49.408;11.116;2022-12-18T04:44:11;81.37;;;35.17;;
11203;SDS011;5659;49.408;11.116;2022-12-18T04:46:36;80.93;;;36.10;;
11203;SDS011;5659;49.408;11.116;2022-12-18T04:49:02;71.80;;;31.47;;
11203;SDS011;5659;49.408;11.116;2022-12-18T04:51:27;70.80;;;32.07;;
11203;SDS011;5659;49.408;11.116;2022-12-18T04:53:53;77.17;;;31.80;;
11203;SDS011;5659;49.408;11.116;2022-12-18T04:56:19;71.93;;;32.10;;
11203;SDS011;5659;49.408;11.116;2022-12-18T04:58:44;73.93;;;32.77;;
11203;SDS011;5659;49.408;11.116;2022-12-18T05:01:10;70.93;;;33.13;;
11203;SDS011;5659;49.408;11.116;2022-12-18T05:03:37;71.47;;;33.33;;
11203;SDS011;5659;49.408;11.116;2022-12-18T05:06:03;84.10;;;33.43;;
11203;SDS011;5659;49.408;11.116;2022-12-18T05:08:29;68.40;;;33.20;;
11203;SDS011;5659;49.408;11.116;2022-12-18T05:11:02;68.40;;;32.17;;
11203;SDS011;5659;49.408;11.116;2022-12-18T05:13:32;74.80;;;32.40;;
11203;SDS011;5659;49.408;11.116;2022-12-18T05:15:59;71.90;;;32.90;;
11203;SDS011;5659;49.408;11.116;2022-12-18T05:18:25;70.53;;;32.10;;
11203;SDS011;5659;49.408;11.116;2022-12-18T05:20:51;74.00;;;33.33;;
11203;SDS011;5659;49.408;11.116;2022-12-18T05:23:17;61.33;;;30.43;;
11203;SDS011;5659;49.408;11.116;2022-12-18T05:26:03;66.80;;;31.37;;
11203;SDS011;5659;49.408;11.116;2022-12-18T05:28:31;71.17;;;32.53;;
11203;SDS011;5659;49.408;11.116;2022-12-18T05:30:58;78.27;;;34.83;;
11203;SDS011;5659;49.408;11.116;2022-12-18T05:33:25;75.70;;;33.37;;
11203;SDS011;5659;49.408;11.116;2022-12-18T05:35:55;71.10;;;31.30;;
11203;SDS011;5659;49.408;11.116;2022-12-18T05:38:22;67.30;;;33.17;;
11203;SDS011;5659;49.408;11.116;2022-12-18T05:40:49;82.30;;;34.23;;
11203;SDS011;5659;49.408;11.116;2022-12-18T05:43:16;85.17;;;34.60;;
11203;SDS011;5659;49.408;11.116;2022-12-18T05:45:42;66.93;;;32.70;;
11203;SDS011;5659;49.408;11.116;2022-12-18T05:48:08;73.60;;;34.13;;
11203;SDS011;5659;49.408;11.116;2022-12-18T05:50:37;72.47;;;33.60;;
11203;SDS011;5659;49.408;11.116;2022-12-18T05:53:04;74.30;;;33.30;;
11203;SDS011;5659;49.408;11.116;2022-12-18T05:55:34;77.10;;;34.03;;
11203;SDS011;5659;49.408;11.116;2022-12-18T05:58:00;75.73;;;34.63;;
11203;SDS011;5659;49.408;11.116;2022-12-18T06:00:27;77.63;;;33.77;;
11203;SDS011;5659;49.408;11.116;2022-12-18T06:02:52;74.77;;;32.73;;
11203;SDS011;5659;49.408;11.116;2022-12-18T06:05:18;77.67;;;34.20;;
11203;SDS011;5659;49.408;11.116;2022-12-18T06:07:43;74.07;;;33.17;;
11203;SDS011;5659;49.408;11.116;2022-12-18T06:10:09;75.40;;;33.00;;
11203;SDS011;5659;49.408;11.116;2022-12-18T06:12:34;76.77;;;34.53;;
11203;SDS011;5659;49.408;11.116;2022-12-18T06:15:00;87.37;;;34.67;;
11203;SDS011;5659;49.408;11.116;2022-12-18T06:17:29;77.33;;;34.73;;
11203;SDS011;5659;49.408;11.116;2022-12-18T06:19:58;74.03;;;34.47;;
11203;SDS011;5659;49.408;11.116;2022-12-18T06:22:24;72.57;;;33.87;;
11203;SDS011;5659;49.408;11.116;2022-12-18T06:24:51;80.67;;;34.60;;
11203;SDS011;5659;49.408;11.116;2022-12-18T06:27:16;79.77;;;34.30;;
11203;SDS011;5659;49.408;11.116;2022-12-18T06:29:42;87.10;;;36.30;;
11203;SDS011;5659;49.408;11.116;2022-12-18T06:32:07;78.80;;;34.17;;
11203;SDS011;5659;49.408;11.116;2022-12-18T06:34:33;75.17;;;34.17;;
11203;SDS011;5659;49.408;11.116;2022-12-18T06:36:59;76.57;;;33.83;;
11203;SDS011;5659;49.408;11.116;2022-12-18T06:39:26;77.43;;;34.40;;
11203;SDS011;5659;49.408;11.116;2022-12-18T06:41:52;83.13;;;34.17;;
11203;SDS011;5659;49.408;11.116;2022-12-18T06:44:18;82.33;;;35.13;;
11203;SDS011;5659;49.408;11.116;2022-12-18T06:46:44;81.77;;;34.80;;
11203;SDS011;5659;49.408;11.116;2022-12-18T06:49:09;82.97;;;34.87;;
11203;SDS011;5659;49.408;11.116;2022-12-18T06:51:35;74.47;;;32.40;;
11203;SDS011;5659;49.408;11.116;2022-12-18T06:54:01;84.10;;;33.13;;
11203;SDS011;5659;49.408;11.116;2022-12-18T06:56:26;84.17;;;33.70;;
11203;SDS011;5659;49.408;11.116;2022-12-18T06:58:53;76.50;;;33.73;;
11203;SDS011;5659;49.408;11.116;2022-12-18T07:01:18;82.03;;;33.33;;
11203;SDS011;5659;49.408;11.116;2022-12-18T07:03:44;75.57;;;32.13;;
11203;SDS011;5659;49.408;11.116;2022-12-18T07:06:14;74.00;;;31.60;;
11203;SDS011;5659;49.408;11.116;2022-12-18T07:08:41;73.00;;;30.23;;
11203;SDS011;5659;49.408;11.116;2022-12-18T07:11:07;64.33;;;30.10;;
11203;SDS011;5659;49.408;11.116;2022-12-18T07:13:32;69.77;;;28.93;;
11203;SDS011;5659;49.408;11.116;2022-12-18T07:16:05;76.30;;;30.77;;
11203;SDS011;5659;49.408;11.116;2022-12-18T07:18:53;65.63;;;27.60;;
11203;SDS011;5659;49.408;11.116;2022-12-18T07:21:20;74.33;;;30.43;;
11203;SDS011;5659;49.408;11.116;2022-12-18T07:23:47;61.43;;;28.93;;
11203;SDS011;5659;49.408;11.116;2022-12-18T07:26:13;70.57;;;30.50;;
11203;SDS011;5659;49.408;11.116;2022-12-18T07:28:40;61.37;;;27.67;;
11203;SDS011;5659;49.408;11.116;2022-12-18T07:31:08;64.57;;;28.40;;
11203;SDS011;5659;49.408;11.116;2022-12-18T07:33:36;55.17;;;26.17;;
11203;SDS011;5659;49.408;11.116;2022-12-18T07:36:02;62.53;;;26.80;;
11203;SDS011;5659;49.408;11.116;2022-12-18T07:38:29;60.90;;;27.90;;
11203;SDS011;5659;49.408;11.116;2022-12-18T07:41:02;61.67;;;26.43;;
11203;SDS011;5659;49.408;11.116;2022-12-18T07:43:29;63.70;;;26.73;;
11203;SDS011;5659;49.408;11.116;2022-12-18T07:45:54;65.00;;;28.97;;
11203;SDS011;5659;49.408;11.116;2022-12-18T07:48:20;66.70;;;29.23;;
11203;SDS011;5659;49.408;11.116;2022-12-18T07:50:45;69.60;;;29.43;;
11203;SDS011;5659;49.408;11.116;2022-12-18T07:53:11;78.73;;;30.70;;
11203;SDS011;5659;49.408;11.116;2022-12-18T07:55:36;65.07;;;28.90;;
11203;SDS011;5659;49.408;11.116;2022-12-18T07:58:02;64.80;;;28.93;;
11203;SDS011;5659;49.408;11.116;2022-12-18T08:00:29;71.87;;;28.27;;
11203;SDS011;5659;49.408;11.116;2022-12-18T08:02:56;73.63;;;30.43;;
11203;SDS011;5659;49.408;11.116;2022-12-18T08:05:22;71.30;;;28.73;;
11203;SDS011;5659;49.408;11.116;2022-12-18T08:07:48;71.07;;;28.13;;
11203;SDS011;5659;49.408;11.116;2022-12-18T08:10:15;65.97;;;29.17;;
11203;SDS011;5659;49.408;11.116;2022-12-18T08:12:41;71.67;;;29.33;;
11203;SDS011;5659;49.408;11.116;2022-12-18T08:15:06;68.23;;;27.83;;
11203;SDS011;5659;49.408;11.116;2022-12-18T08:17:32;65.23;;;28.90;;
11203;SDS011;5659;49.408;11.116;2022-12-18T08:19:58;75.87;;;31.50;;
11203;SDS011;5659;49.408;11.116;2022-12-18T08:22:24;68.63;;;29.57;;
11203;SDS011;5659;49.408;11.116;2022-12-18T08:24:49;70.63;;;28.20;;
11203;SDS011;5659;49.408;11.116;2022-12-18T08:27:15;62.10;;;27.60;;
11203;SDS011;5659;49.408;11.116;2022-12-18T08:29:40;60.07;;;26.20;;
11203;SDS011;5659;49.408;11.116;2022-12-18T08:32:06;61.17;;;26.77;;
11203;SDS011;5659;49.408;11.116;2022-12-18T08:34:31;56.93;;;26.53;;
11203;SDS011;5659;49.408;11.116;2022-12-18T08:36:57;55.47;;;26.17;;
11203;SDS011;5659;49.408;11.116;2022-12-18T08:39:22;60.40;;;26.43;;
11203;SDS011;5659;49.408;11.116;2022-12-18T08:41:48;54.43;;;26.03;;
11203;SDS011;5659;49.408;11.116;2022-12-18T08:44:33;56.83;;;25.90;;
11203;SDS011;5659;49.408;11.116;2022-12-18T08:47:02;54.83;;;26.03;;
11203;SDS011;5659;49.408;11.116;2022-12-18T08:49:27;57.77;;;26.40;;
11203;SDS011;5659;49.408;11.116;2022-12-18T08:51:56;56.70;;;25.93;;
11203;SDS011;5659;49.408;11.116;2022-12-18T08:54:22;54.30;;;24.07;;
11203;SDS011;5659;49.408;11.116;2022-12-18T08:56:48;53.90;;;25.23;;
11203;SDS011;5659;49.408;11.116;2022-12-18T08:59:15;58.17;;;26.57;;
11203;SDS011;5659;49.408;11.116;2022-12-18T09:01:41;46.13;;;23.20;;
11203;SDS011;5659;49.408;11.116;2022-12-18T09:04:07;47.43;;;23.97;;
11203;SDS011;5659;49.408;11.116;2022-12-18T09:06:34;46.07;;;22.67;;
11203;SDS011;5659;49.408;11.116;2022-12-18T09:08:59;45.57;;;23.13;;
11203;SDS011;5659;49.408;11.116;2022-12-18T09:11:26;47.10;;;22.33;;
11203;SDS011;5659;49.408;11.116;2022-12-18T09:13:53;46.23;;;21.83;;
11203;SDS011;5659;49.408;11.116;2022-12-18T09:16:19;49.47;;;23.77;;
11203;SDS011;5659;49.408;11.116;2022-12-18T09:18:46;52.87;;;26.23;;
11203;SDS011;5659;49.408;11.116;2022-12-18T09:21:17;48.87;;;24.33;;
11203;SDS011;5659;49.408;11.116;2022-12-18T09:23:48;46.13;;;22.80;;
11203;SDS011;5659;49.408;11.116;2022-12-18T09:26:17;37.57;;;19.20;;
11203;SDS011;5659;49.408;11.116;2022-12-18T09:28:43;37.23;;;18.27;;
11203;SDS011;5659;49.408;11.116;2022-12-18T09:31:10;37.40;;;18.83;;
11203;SDS011;5659;49.408;11.116;2022-12-18T09:33:37;37.63;;;19.10;;
11203;SDS011;5659;49.408;11.116;2022-12-18T09:36:04;41.47;;;20.23;;
11203;SDS011;5659;49.408;11.116;2022-12-18T09:38:31;35.17;;;18.77;;
11203;SDS011;5659;49.408;11.116;2022-12-18T09:40:59;43.60;;;20.57;;
11203;SDS011;5659;49.408;11.116;2022-12-18T09:43:40;43.37;;;21.67;;
11203;SDS011;5659;49.408;11.116;2022-12-18T09:46:16;43.37;;;21.20;;
11203;SDS011;5659;49.408;11.116;2022-12-18T09:48:51;45.40;;;21.60;;
11203;SDS011;5659;49.408;11.116;2022-12-18T09:51:21;41.93;;;21.13;;
11203;SDS011;5659;49.408;11.116;2022-12-18T09:53:51;45.30;;;22.43;;
11203;SDS011;5659;49.408;11.116;2022-12-18T09:56:20;43.47;;;21.50;;
11203;SDS011;5659;49.408;11.116;2022-12-18T10:01:26;37.60;;;20.07;;
11203;SDS011;5659;49.408;11.116;2022-12-18T10:03:53;37.40;;;19.20;;
11203;SDS011;5659;49.408;11.116;2022-12-18T10:09:09;39.27;;;19.83;;
11203;SDS011;5659;49.408;11.116;2022-12-18T10:12:40;38.70;;;20.33;;
11203;SDS011;5659;49.408;11.116;2022-12-18T10:14:45;41.83;;;20.33;;
11203;SDS011;5659;49.408;11.116;2022-12-18T10:19:52;41.30;;;19.77;;
11203;SDS011;5659;49.408;11.116;2022-12-18T10:22:24;36.07;;;19.57;;
11203;SDS011;5659;49.408;11.116;2022-12-18T10:27:51;34.17;;;18.13;;
11203;SDS011;5659;49.408;11.116;2022-12-18T10:30:21;26.73;;;16.33;;
11203;SDS011;5659;49.408;11.116;2022-12-18T10:32:48;30.73;;;16.87;;
11203;SDS011;5659;49.408;11.116;2022-12-18T10:35:21;30.30;;;16.70;;
11203;SDS011;5659;49.408;11.116;2022-12-18T10:40:26;31.10;;;16.63;;
11203;SDS011;5659;49.408;11.116;2022-12-18T10:43:05;29.60;;;16.87;;
11203;SDS011;5659;49.408;11.116;2022-12-18T10:45:44;29.13;;;15.73;;
11203;SDS011;5659;49.408;11.116;2022-12-18T10:48:24;27.67;;;15.93;;
11203;SDS011;5659;49.408;11.116;2022-12-18T10:50:50;28.93;;;16.23;;
11203;SDS011;5659;49.408;11.116;2022-12-18T10:53:21;28.07;;;16.47;;
11203;SDS011;5659;49.408;11.116;2022-12-18T10:55:50;31.73;;;17.97;;
11203;SDS011;5659;49.408;11.116;2022-12-18T10:58:28;31.27;;;16.27;;
11203;SDS011;5659;49.408;11.116;2022-12-18T11:03:32;29.47;;;16.43;;
11203;SDS011;5659;49.408;11.116;2022-12-18T11:06:09;28.33;;;16.20;;
11203;SDS011;5659;49.408;11.116;2022-12-18T11:08:39;28.53;;;16.90;;
11203;SDS011;5659;49.408;11.116;2022-12-18T11:11:07;28.23;;;16.60;;
11203;SDS011;5659;49.408;11.116;2022-12-18T11:14:01;29.07;;;16.73;;
11203;SDS011;5659;49.408;11.116;2022-12-18T11:16:29;29.57;;;16.93;;
11203;SDS011;5659;49.408;11.116;2022-12-18T11:21:54;30.53;;;16.70;;
11203;SDS011;5659;49.408;11.116;2022-12-18T11:24:23;32.33;;;16.60;;
11203;SDS011;5659;49.408;11.116;2022-12-18T11:26:51;27.70;;;16.13;;
11203;SDS011;5659;49.408;11.116;2022-12-18T11:29:17;34.23;;;18.03;;
11203;SDS011;5659;49.408;11.116;2022-12-18T11:31:48;29.33;;;16.43;;
11203;SDS011;5659;49.408;11.116;2022-12-18T11:34:16;36.13;;;18.57;;
11203;SDS011;5659;49.408;11.116;2022-12-18T11:36:49;29.40;;;16.23;;
11203;SDS011;5659;49.408;11.116;2022-12-18T11:39:17;32.47;;;17.97;;
11203;SDS011;5659;49.408;11.116;2022-12-18T11:41:49;28.50;;;16.73;;
11203;SDS011;5659;49.408;11.116;2022-12-18T11:44:42;31.33;;;17.83;;
11203;SDS011;5659;49.408;11.116;2022-12-18T11:47:46;28.07;;;15.57;;
11203;SDS011;5659;49.408;11.116;2022-12-18T11:50:18;28.03;;;16.27;;
11203;SDS011;5659;49.408;11.116;2022-12-18T11:52:48;27.07;;;15.13;;
11203;SDS011;5659;49.408;11.116;2022-12-18T11:55:21;28.70;;;17.57;;
11203;SDS011;5659;49.408;11.116;2022-12-18T11:58:07;29.17;;;16.57;;
11203;SDS011;5659;49.408;11.116;2022-12-18T12:00:41;28.67;;;16.37;;
11203;SDS011;5659;49.408;11.116;2022-12-18T12:23:06;31.57;;;16.30;;
11203;SDS011;5659;49.408;11.116;2022-12-18T12:26:10;30.40;;;16.87;;
11203;SDS011;5659;49.408;11.116;2022-12-18T12:29:07;28.80;;;15.63;;
11203;SDS011;5659;49.408;11.116;2022-12-18T12:40:06;31.97;;;16.93;;
11203;SDS011;5659;49.408;11.116;2022-12-18T12:42:38;35.63;;;17.67;;
11203;SDS011;5659;49.408;11.116;2022-12-18T12:45:34;33.60;;;18.47;;
11203;SDS011;5659;49.408;11.116;2022-12-18T12:48:04;32.37;;;17.40;;
11203;SDS011;5659;49.408;11.116;2022-12-18T12:50:35;30.33;;;17.20;;
11203;SDS011;5659;49.408;11.116;2022-12-18T12:53:05;33.33;;;18.30;;
11203;SDS011;5659;49.408;11.116;2022-12-18T12:55:34;29.93;;;16.77;;
11203;SDS011;5659;49.408;11.116;2022-12-18T13:01:42;33.10;;;17.87;;
11203;SDS011;5659;49.408;11.116;2022-12-18T13:06:40;33.63;;;18.33;;
11203;SDS011;5659;49.408;11.116;2022-12-18T13:09:18;31.43;;;18.20;;
11203;SDS011;5659;49.408;11.116;2022-12-18T13:11:44;32.03;;;17.77;;
11203;SDS011;5659;49.408;11.116;2022-12-18T13:14:37;33.07;;;18.17;;
11203;SDS011;5659;49.408;11.116;2022-12-18T13:25:01;36.00;;;18.63;;
11203;SDS011;5659;49.408;11.116;2022-12-18T13:43:41;36.30;;;18.70;;
11203;SDS011;5659;49.408;11.116;2022-12-18T13:46:19;32.87;;;17.40;;
11203;SDS011;5659;49.408;11.116;2022-12-18T13:48:55;36.40;;;18.37;;
11203;SDS011;5659;49.408;11.116;2022-12-18T13:51:26;33.30;;;17.73;;
11203;SDS011;5659;49.408;11.116;2022-12-18T13:54:40;34.80;;;18.50;;
11203;SDS011;5659;49.408;11.116;2022-12-18T13:56:50;37.97;;;19.50;;
11203;SDS011;5659;49.408;11.116;2022-12-18T13:59:20;32.70;;;18.33;;
11203;SDS011;5659;49.408;11.116;2022-12-18T14:01:58;35.20;;;18.30;;
11203;SDS011;5659;49.408;11.116;2022-12-18T14:04:29;39.43;;;20.00;;
11203;SDS011;5659;49.408;11.116;2022-12-18T14:07:03;31.50;;;17.80;;
11203;SDS011;5659;49.408;11.116;2022-12-18T14:09:35;39.30;;;19.83;;
11203;SDS011;5659;49.408;11.116;2022-12-18T14:12:04;36.37;;;17.67;;
11203;SDS011;5659;49.408;11.116;2022-12-18T14:14:50;34.37;;;18.50;;
11203;SDS011;5659;49.408;11.116;2022-12-18T14:17:17;36.93;;;18.73;;
11203;SDS011;5659;49.408;11.116;2022-12-18T14:19:47;38.20;;;19.03;;
11203;SDS011;5659;49.408;11.116;2022-12-18T14:22:16;38.67;;;20.53;;
11203;SDS011;5659;49.408;11.116;2022-12-18T14:30:37;38.07;;;20.13;;
11203;SDS011;5659;49.408;11.116;2022-12-18T14:33:05;38.67;;;19.97;;
11203;SDS011;5659;49.408;11.116;2022-12-18T14:35:35;35.20;;;18.83;;
11203;SDS011;5659;49.408;11.116;2022-12-18T14:38:22;35.37;;;19.37;;
11203;SDS011;5659;49.408;11.116;2022-12-18T14:40:54;36.50;;;18.77;;
11203;SDS011;5659;49.408;11.116;2022-12-18T14:43:28;37.50;;;19.60;;
11203;SDS011;5659;49.408;11.116;2022-12-18T14:45:56;36.83;;;20.13;;
11203;SDS011;5659;49.408;11.116;2022-12-18T14:48:39;33.30;;;19.73;;
11203;SDS011;5659;49.408;11.116;2022-12-18T14:51:12;35.43;;;19.37;;
11203;SDS011;5659;49.408;11.116;2022-12-18T14:53:40;37.70;;;20.13;;
11203;SDS011;5659;49.408;11.116;2022-12-18T14:56:12;35.27;;;18.83;;
11203;SDS011;5659;49.408;11.116;2022-12-18T14:59:32;37.40;;;20.23;;
11203;SDS011;5659;49.408;11.116;2022-12-18T15:01:39;37.97;;;20.63;;
11203;SDS011;5659;49.408;11.116;2022-12-18T15:10:03;40.73;;;21.47;;
11203;SDS011;5659;49.408;11.116;2022-12-18T15:14:59;40.83;;;21.23;;
11203;SDS011;5659;49.408;11.116;2022-12-18T15:17:25;42.20;;;20.90;;
11203;SDS011;5659;49.408;11.116;2022-12-18T15:19:52;38.90;;;20.43;;
11203;SDS011;5659;49.408;11.116;2022-12-18T15:22:27;39.17;;;20.30;;
11203;SDS011;5659;49.408;11.116;2022-12-18T15:24:55;43.53;;;21.80;;
11203;SDS011;5659;49.408;11.116;2022-12-18T15:27:35;39.27;;;21.07;;
11203;SDS011;5659;49.408;11.116;2022-12-18T15:32:35;42.23;;;21.50;;
11203;SDS011;5659;49.408;11.116;2022-12-18T15:37:36;42.83;;;22.57;;
11203;SDS011;5659;49.408;11.116;2022-12-18T15:40:05;37.50;;;21.00;;
11203;SDS011;5659;49.408;11.116;2022-12-18T15:42:33;40.53;;;21.30;;
11203;SDS011;5659;49.408;11.116;2022-12-18T15:45:17;44.47;;;22.00;;
11203;SDS011;5659;49.408;11.116;2022-12-18T15:47:43;39.83;;;20.40;;
11203;SDS011;5659;49.408;11.116;2022-12-18T15:50:09;39.40;;;21.10;;
11203;SDS011;5659;49.408;11.116;2022-12-18T15:52:38;43.93;;;21.97;;
11203;SDS011;5659;49.408;11.116;2022-12-18T15:55:11;44.50;;;22.70;;
11203;SDS011;5659;49.408;11.116;2022-12-18T15:58:08;49.37;;;25.20;;
11203;SDS011;5659;49.408;11.116;2022-12-18T16:00:35;57.27;;;28.70;;
11203;SDS011;5659;49.408;11.116;2022-12-18T16:03:02;55.47;;;28.60;;
11203;SDS011;5659;49.408;11.116;2022-12-18T16:05:29;49.80;;;25.60;;
11203;SDS011;5659;49.408;11.116;2022-12-18T16:07:55;45.50;;;24.33;;
11203;SDS011;5659;49.408;11.116;2022-12-18T16:10:21;46.30;;;24.63;;
11203;SDS011;5659;49.408;11.116;2022-12-18T16:12:48;48.20;;;24.17;;
11203;SDS011;5659;49.408;11.116;2022-12-18T16:15:14;50.17;;;25.00;;
11203;SDS011;5659;49.408;11.116;2022-12-18T16:17:41;43.27;;;23.70;;
11203;SDS011;5659;49.408;11.116;2022-12-18T16:20:15;48.83;;;25.43;;
11203;SDS011;5659;49.408;11.116;2022-12-18T16:22:46;51.47;;;25.57;;
11203;SDS011;5659;49.408;11.116;2022-12-18T16:25:23;45.77;;;23.90;;
11203;SDS011;5659;49.408;11.116;2022-12-18T16:27:50;48.93;;;23.53;;
11203;SDS011;5659;49.408;11.116;2022-12-18T16:30:20;47.67;;;24.60;;
11203;SDS011;5659;49.408;11.116;2022-12-18T16:32:48;46.50;;;24.10;;
11203;SDS011;5659;49.408;11.116;2022-12-18T16:35:15;50.67;;;25.17;;
11203;SDS011;5659;49.408;11.116;2022-12-18T16:37:41;50.23;;;25.07;;
11203;SDS011;5659;49.408;11.116;2022-12-18T16:40:08;48.60;;;25.07;;
11203;SDS011;5659;49.408;11.116;2022-12-18T16:42:36;49.93;;;24.27;;
11203;SDS011;5659;49.408;11.116;2022-12-18T16:45:04;56.53;;;24.27;;
11203;SDS011;5659;49.408;11.116;2022-12-18T16:47:30;46.50;;;26.37;;
11203;SDS011;5659;49.408;11.116;2022-12-18T16:49:56;54.27;;;27.47;;